createdAt,value
2019-02-23T00:01:48.883Z,9.20
2019-02-23T00:04:17.280Z,9.20
2019-02-23T00:06:45.659Z,9.20
2019-02-23T00:09:14.061Z,9.10
2019-02-23T00:11:42.504Z,9.10
2019-02-23T00:14:10.922Z,9.10
2019-02-23T00:16:39.334Z,9.10
2019-02-23T00:19:07.715Z,9.00
2019-02-23T00:21:36.158Z,9.00
2019-02-23T00:24:04.549Z,9.00
2019-02-23T00:26:32.978Z,9.00
2019-02-23T00:29:01.386Z,9.00
2019-02-23T00:31:29.779Z,8.90
2019-02-23T00:33:58.192Z,8.90
2019-02-23T00:36:26.602Z,8.90
2019-02-23T00:38:55.030Z,8.90
2019-02-23T00:41:23.414Z,8.90
2019-02-23T00:43:51.842Z,8.80
2019-02-23T00:46:20.251Z,8.90
2019-02-23T00:48:48.638Z,8.80
2019-02-23T00:51:17.051Z,8.80
2019-02-23T00:53:45.428Z,8.80
2019-02-23T00:56:13.841Z,8.80
2019-02-23T00:58:42.248Z,8.70
2019-02-23T01:01:10.731Z,8.70
2019-02-23T01:03:39.153Z,8.70
2019-02-23T01:06:07.535Z,8.70
2019-02-23T01:08:36.095Z,8.70
2019-02-23T01:11:04.508Z,8.70
2019-02-23T01:13:32.899Z,8.60
2019-02-23T01:16:01.311Z,8.60
2019-02-23T01:18:29.694Z,8.60
2019-02-23T01:20:58.096Z,8.60
2019-02-23T01:23:26.510Z,8.60
2019-02-23T01:25:54.907Z,8.50
2019-02-23T01:28:23.307Z,8.50
2019-02-23T01:30:51.787Z,8.50
2019-02-23T01:33:20.211Z,8.50
2019-02-23T01:35:48.587Z,8.40
2019-02-23T01:38:17.010Z,8.40
2019-02-23T01:40:45.413Z,8.30
2019-02-23T01:43:13.907Z,8.30
2019-02-23T01:45:42.822Z,8.30
2019-02-23T01:48:11.192Z,8.30
2019-02-23T01:50:39.602Z,8.30
2019-02-23T01:53:07.993Z,8.20
2019-02-23T01:55:36.471Z,8.20
2019-02-23T01:58:04.846Z,8.20
2019-02-23T02:00:33.255Z,8.20
2019-02-23T02:03:01.631Z,8.20
2019-02-23T02:05:30.009Z,8.20
2019-02-23T02:07:58.409Z,8.20
2019-02-23T02:10:26.888Z,8.20
2019-02-23T02:12:55.275Z,8.10
2019-02-23T02:15:23.695Z,8.10
2019-02-23T02:17:52.071Z,8.10
2019-02-23T02:20:20.512Z,8.10
2019-02-23T02:22:48.892Z,8.00
2019-02-23T02:25:17.275Z,8.10
2019-02-23T02:27:45.678Z,8.00
2019-02-23T02:30:14.071Z,8.00
2019-02-23T02:32:42.578Z,7.90
2019-02-23T02:35:11.323Z,7.90
2019-02-23T02:37:39.710Z,7.90
2019-02-23T02:40:09.189Z,7.90
2019-02-23T02:42:37.629Z,7.90
2019-02-23T02:45:08.839Z,7.90
2019-02-23T02:47:37.271Z,7.90
2019-02-23T02:50:07.603Z,7.90
2019-02-23T02:52:36.083Z,7.80
2019-02-23T02:55:06.216Z,7.80
2019-02-23T02:57:34.838Z,7.80
2019-02-23T03:00:03.215Z,7.80
2019-02-23T03:02:31.622Z,7.80
2019-02-23T03:05:00.001Z,7.70
2019-02-23T03:07:28.402Z,7.70
2019-02-23T03:09:56.783Z,7.70
2019-02-23T03:12:25.179Z,7.70
2019-02-23T03:14:53.582Z,7.70
2019-02-23T03:17:22.003Z,7.70
2019-02-23T03:19:50.401Z,7.60
2019-02-23T03:22:18.793Z,7.60
2019-02-23T03:24:47.197Z,7.60
2019-02-23T03:27:15.595Z,7.60
2019-02-23T03:29:43.970Z,7.50
2019-02-23T03:32:12.377Z,7.50
2019-02-23T03:34:40.739Z,7.50
2019-02-23T03:37:09.161Z,7.50
2019-02-23T03:39:37.543Z,7.50
2019-02-23T03:42:05.918Z,7.40
2019-02-23T03:44:34.327Z,7.40
2019-02-23T03:47:02.726Z,7.40
2019-02-23T03:49:31.102Z,7.40
2019-02-23T03:51:59.504Z,7.40
2019-02-23T03:54:27.882Z,7.40
2019-02-23T03:56:56.287Z,7.40
2019-02-23T03:59:24.712Z,7.30
2019-02-23T04:01:53.105Z,7.30
2019-02-23T04:04:21.498Z,7.30
2019-02-23T04:06:49.902Z,7.30
2019-02-23T04:09:18.293Z,7.30
2019-02-23T04:11:46.661Z,7.30
2019-02-23T04:14:15.067Z,7.30
2019-02-23T04:16:43.445Z,7.30
2019-02-23T04:19:11.850Z,7.30
2019-02-23T04:21:40.232Z,7.30
2019-02-23T04:24:08.656Z,7.30
2019-02-23T04:26:37.081Z,7.20
2019-02-23T04:29:05.436Z,7.20
2019-02-23T04:31:33.861Z,7.20
2019-02-23T04:34:02.247Z,7.20
2019-02-23T04:36:30.658Z,7.20
2019-02-23T04:38:59.025Z,7.20
2019-02-23T04:41:27.405Z,7.20
2019-02-23T04:43:55.778Z,7.10
2019-02-23T04:46:24.194Z,7.10
2019-02-23T04:48:52.577Z,7.10
2019-02-23T04:51:20.986Z,7.10
2019-02-23T04:53:49.375Z,7.00
2019-02-23T04:56:17.760Z,7.00
2019-02-23T04:58:46.184Z,7.00
2019-02-23T05:01:14.595Z,7.00
2019-02-23T05:03:42.970Z,6.90
2019-02-23T05:06:11.379Z,6.90
2019-02-23T05:08:39.775Z,6.80
2019-02-23T05:11:08.165Z,6.80
2019-02-23T05:13:36.627Z,6.80
2019-02-23T05:16:05.053Z,6.80
2019-02-23T05:18:33.424Z,6.80
2019-02-23T05:21:01.806Z,6.80
2019-02-23T05:23:30.215Z,6.80
2019-02-23T05:25:58.595Z,6.80
2019-02-23T05:28:27.003Z,6.70
2019-02-23T05:30:55.392Z,6.70
2019-02-23T05:33:23.801Z,6.70
2019-02-23T05:35:52.232Z,6.70
2019-02-23T05:38:20.599Z,6.70
2019-02-23T05:40:49.004Z,6.70
2019-02-23T05:43:17.384Z,6.70
2019-02-23T05:45:45.761Z,6.70
2019-02-23T05:48:15.811Z,6.60
2019-02-23T05:50:44.196Z,6.60
2019-02-23T05:53:12.604Z,6.60
2019-02-23T05:55:40.995Z,6.60
2019-02-23T05:58:09.425Z,6.50
2019-02-23T06:00:37.841Z,6.50
2019-02-23T06:03:06.216Z,6.50
2019-02-23T06:05:34.625Z,6.50
2019-02-23T06:08:03.020Z,6.40
2019-02-23T06:10:31.419Z,6.40
2019-02-23T06:12:59.836Z,6.40
2019-02-23T06:15:28.213Z,6.40
2019-02-23T06:17:56.617Z,6.40
2019-02-23T06:20:25.024Z,6.40
2019-02-23T06:22:53.429Z,6.30
2019-02-23T06:25:21.818Z,6.30
2019-02-23T06:27:50.244Z,6.30
2019-02-23T06:30:18.621Z,6.30
2019-02-23T06:32:47.030Z,6.30
2019-02-23T06:35:15.405Z,6.20
2019-02-23T06:37:43.819Z,6.20
2019-02-23T06:40:12.274Z,6.20
2019-02-23T06:42:40.682Z,6.20
2019-02-23T06:45:11.268Z,6.20
2019-02-23T06:47:39.680Z,6.20
2019-02-23T06:50:08.229Z,6.20
2019-02-23T06:52:36.640Z,6.20
2019-02-23T06:55:06.256Z,6.20
2019-02-23T06:57:34.654Z,6.20
2019-02-23T07:00:03.536Z,6.20
2019-02-23T07:02:31.920Z,6.20
2019-02-23T07:05:00.405Z,6.20
2019-02-23T07:07:28.838Z,6.20
2019-02-23T07:09:57.217Z,6.20
2019-02-23T07:12:25.634Z,6.20
2019-02-23T07:14:54.018Z,6.20
2019-02-23T07:17:22.431Z,6.30
2019-02-23T07:19:50.808Z,6.20
2019-02-23T07:22:19.216Z,6.30
2019-02-23T07:24:47.616Z,6.30
2019-02-23T07:27:16.007Z,6.30
2019-02-23T07:29:44.412Z,6.30
2019-02-23T07:32:12.789Z,6.40
2019-02-23T07:34:41.228Z,6.40
2019-02-23T07:37:09.639Z,6.50
2019-02-23T07:39:38.045Z,6.50
2019-02-23T07:42:06.430Z,6.50
2019-02-23T07:44:34.812Z,6.50
2019-02-23T07:47:03.217Z,6.50
2019-02-23T07:49:31.610Z,6.50
2019-02-23T07:52:00.016Z,6.50
2019-02-23T07:54:28.399Z,6.60
2019-02-23T07:56:56.810Z,6.60
2019-02-23T07:59:25.243Z,6.70
2019-02-23T08:01:53.607Z,6.70
2019-02-23T08:04:22.010Z,6.80
2019-02-23T08:06:50.426Z,6.70
2019-02-23T08:09:18.893Z,6.80
2019-02-23T08:11:47.301Z,6.80
2019-02-23T08:14:15.706Z,6.90
2019-02-23T08:16:44.082Z,6.90
2019-02-23T08:19:12.515Z,7.00
2019-02-23T08:21:40.882Z,7.00
2019-02-23T08:24:09.329Z,7.10
2019-02-23T08:26:37.794Z,7.30
2019-02-23T08:29:06.244Z,7.50
2019-02-23T08:31:34.824Z,7.60
2019-02-23T08:34:03.183Z,7.60
2019-02-23T08:36:31.589Z,8.30
2019-02-23T08:38:59.976Z,8.30
2019-02-23T08:41:28.347Z,8.10
2019-02-23T08:43:56.749Z,8.00
2019-02-23T08:46:25.152Z,8.00
2019-02-23T08:48:53.549Z,8.00
2019-02-23T08:51:21.960Z,8.00
2019-02-23T08:53:50.362Z,8.00
2019-02-23T08:56:18.738Z,8.00
2019-02-23T08:58:47.155Z,8.00
2019-02-23T09:01:15.543Z,8.00
2019-02-23T09:03:43.952Z,8.10
2019-02-23T09:06:12.359Z,8.10
2019-02-23T09:08:40.858Z,8.20
2019-02-23T09:11:09.319Z,8.20
2019-02-23T09:13:37.717Z,8.30
2019-02-23T09:16:06.124Z,8.30
2019-02-23T09:18:34.503Z,8.30
2019-02-23T09:21:02.915Z,8.40
2019-02-23T09:23:31.319Z,8.40
2019-02-23T09:25:59.726Z,8.50
2019-02-23T09:28:28.181Z,8.50
2019-02-23T09:30:56.568Z,8.60
2019-02-23T09:33:24.984Z,8.60
2019-02-23T09:35:53.390Z,8.70
2019-02-23T09:38:21.781Z,8.80
2019-02-23T09:40:50.188Z,8.80
2019-02-23T09:43:18.572Z,8.90
2019-02-23T09:45:46.955Z,8.90
2019-02-23T09:48:15.371Z,8.90
2019-02-23T09:50:43.753Z,9.00
2019-02-23T09:53:12.151Z,9.00
2019-02-23T09:55:40.539Z,9.10
2019-02-23T09:58:08.919Z,9.20
2019-02-23T10:00:37.318Z,9.20
2019-02-23T10:03:05.726Z,9.30
2019-02-23T10:05:34.114Z,9.40
2019-02-23T10:08:02.493Z,9.40
2019-02-23T10:10:30.900Z,9.50
2019-02-23T10:12:59.291Z,9.60
2019-02-23T10:15:27.709Z,9.60
2019-02-23T10:17:56.124Z,9.70
2019-02-23T10:20:24.503Z,9.70
2019-02-23T10:22:52.901Z,9.80
2019-02-23T10:25:21.304Z,9.90
2019-02-23T10:27:49.687Z,10.00
2019-02-23T10:30:18.138Z,10.00
2019-02-23T10:32:46.480Z,10.10
2019-02-23T10:35:14.943Z,10.20
2019-02-23T10:37:43.331Z,10.30
2019-02-23T10:40:12.596Z,10.50
2019-02-23T10:42:40.999Z,10.70
2019-02-23T10:45:11.315Z,10.80
2019-02-23T10:47:39.716Z,10.90
2019-02-23T10:50:10.674Z,10.90
2019-02-23T10:52:39.079Z,10.90
2019-02-23T10:55:10.013Z,11.00
2019-02-23T10:57:38.420Z,11.10
2019-02-23T11:00:11.857Z,11.10
2019-02-23T11:02:40.232Z,11.20
2019-02-23T11:05:10.002Z,11.20
2019-02-23T11:07:38.803Z,11.30
2019-02-23T11:10:08.453Z,11.40
2019-02-23T11:12:36.861Z,11.40
2019-02-23T11:15:13.435Z,11.50
2019-02-23T11:17:41.842Z,11.60
2019-02-23T11:20:11.069Z,11.60
2019-02-23T11:22:39.487Z,11.70
2019-02-23T11:25:09.998Z,11.70
2019-02-23T11:27:38.412Z,11.70
2019-02-23T11:30:10.187Z,11.70
2019-02-23T11:32:42.337Z,11.80
2019-02-23T11:35:12.339Z,11.80
2019-02-23T11:37:40.938Z,11.90
2019-02-23T11:40:11.554Z,11.90
2019-02-23T11:42:40.278Z,11.90
2019-02-23T11:45:10.213Z,11.90
2019-02-23T11:47:38.638Z,11.90
2019-02-23T11:50:09.330Z,12.00
2019-02-23T11:52:39.480Z,12.00
2019-02-23T11:55:07.763Z,12.10
2019-02-23T11:57:36.263Z,12.10
2019-02-23T12:00:10.486Z,12.10
2019-02-23T12:02:38.891Z,12.20
2019-02-23T12:05:08.146Z,12.20
2019-02-23T12:07:36.603Z,12.20
2019-02-23T12:10:08.527Z,12.30
2019-02-23T12:12:36.913Z,12.30
2019-02-23T12:15:06.767Z,12.30
2019-02-23T12:17:35.171Z,12.30
2019-02-23T12:20:04.515Z,12.30
2019-02-23T12:22:32.896Z,12.40
2019-02-23T12:25:01.304Z,12.50
2019-02-23T12:27:30.006Z,12.50
2019-02-23T12:29:58.423Z,12.50
2019-02-23T12:32:26.827Z,12.60
2019-02-23T12:34:55.225Z,12.60
2019-02-23T12:37:23.711Z,12.70
2019-02-23T12:39:55.214Z,12.60
2019-02-23T12:42:23.546Z,12.60
2019-02-23T12:44:51.944Z,12.70
2019-02-23T12:47:20.322Z,12.70
2019-02-23T12:49:48.742Z,12.80
2019-02-23T12:52:17.132Z,12.90
2019-02-23T12:54:45.535Z,12.90
2019-02-23T12:57:13.915Z,13.00
2019-02-23T12:59:42.304Z,13.00
2019-02-23T13:02:10.706Z,13.00
2019-02-23T13:04:39.087Z,13.20
2019-02-23T13:07:07.490Z,13.20
2019-02-23T13:09:35.892Z,13.20
2019-02-23T13:12:13.262Z,13.20
2019-02-23T13:14:56.836Z,13.20
2019-02-23T13:17:48.008Z,13.20
2019-02-23T13:20:25.266Z,12.70
2019-02-23T13:23:12.005Z,13.30
2019-02-23T13:26:01.659Z,13.40
2019-02-23T13:28:52.783Z,13.40
2019-02-23T13:31:44.195Z,13.50
2019-02-23T13:34:42.781Z,13.60
2019-02-23T13:37:17.230Z,13.60
2019-02-23T13:40:01.090Z,13.80
2019-02-23T13:42:49.579Z,13.80
2019-02-23T13:45:39.402Z,13.80
2019-02-23T13:48:27.336Z,14.00
2019-02-23T13:51:10.763Z,14.10
2019-02-23T13:53:57.490Z,14.20
2019-02-23T13:56:48.754Z,14.30
2019-02-23T13:59:50.593Z,14.30
2019-02-23T14:02:34.184Z,14.40
2019-02-23T14:05:14.950Z,14.40
2019-02-23T14:07:46.605Z,14.30
2019-02-23T14:10:45.547Z,14.20
2019-02-23T14:13:26.044Z,14.20
2019-02-23T14:16:14.336Z,14.10
2019-02-23T14:18:55.191Z,14.00
2019-02-23T14:21:47.222Z,13.90
2019-02-23T14:24:49.781Z,13.90
2019-02-23T14:27:30.332Z,13.80
2019-02-23T14:30:30.412Z,13.70
2019-02-23T14:33:17.727Z,13.70
2019-02-23T14:36:07.531Z,13.60
2019-02-23T14:39:07.990Z,13.60
2019-02-23T14:41:48.455Z,13.60
2019-02-23T14:44:34.951Z,13.70
2019-02-23T14:47:18.738Z,13.70
2019-02-23T14:50:11.307Z,13.70
2019-02-23T14:53:04.166Z,13.70
2019-02-23T14:55:44.625Z,13.70
2019-02-23T14:58:24.566Z,13.60
2019-02-23T15:01:07.989Z,13.50
2019-02-23T15:03:48.376Z,13.40
2019-02-23T15:06:31.836Z,13.20
2019-02-23T15:09:27.275Z,13.10
2019-02-23T15:12:01.525Z,13.00
2019-02-23T15:14:38.960Z,12.90
2019-02-23T15:17:10.625Z,12.80
2019-02-23T15:20:01.973Z,12.70
2019-02-23T15:23:10.447Z,12.80
2019-02-23T15:26:16.766Z,12.90
2019-02-23T15:29:14.333Z,13.00
2019-02-23T15:32:06.817Z,13.10
2019-02-23T15:34:54.823Z,13.20
2019-02-23T15:37:41.381Z,13.30
2019-02-23T15:40:37.406Z,13.40
2019-02-23T15:43:36.092Z,13.40
2019-02-23T15:46:10.667Z,13.30
2019-02-23T15:48:42.336Z,13.30
2019-02-23T15:51:10.715Z,13.30
2019-02-23T15:53:39.162Z,13.20
2019-02-23T15:56:07.514Z,13.20
2019-02-23T15:58:35.911Z,13.10
2019-02-23T16:01:04.313Z,13.00
2019-02-23T16:03:32.732Z,12.90
2019-02-23T16:06:01.144Z,12.80
2019-02-23T16:08:29.547Z,12.80
2019-02-23T16:10:57.931Z,12.70
2019-02-23T16:13:26.429Z,12.60
2019-02-23T16:15:54.837Z,12.60
2019-02-23T16:18:23.463Z,12.50
2019-02-23T16:20:51.873Z,12.50
2019-02-23T16:23:20.271Z,12.40
2019-02-23T16:25:48.729Z,12.40
2019-02-23T16:28:17.144Z,12.40
2019-02-23T16:30:46.812Z,12.30
2019-02-23T16:33:15.236Z,12.30
2019-02-23T16:35:43.626Z,12.20
2019-02-23T16:38:12.023Z,12.20
2019-02-23T16:40:40.427Z,12.10
2019-02-23T16:43:08.894Z,12.00
2019-02-23T16:45:37.223Z,11.90
2019-02-23T16:48:05.641Z,11.80
2019-02-23T16:50:34.051Z,11.70
2019-02-23T16:53:02.509Z,11.60
2019-02-23T16:55:30.897Z,11.50
2019-02-23T16:57:59.276Z,11.50
2019-02-23T17:00:27.683Z,11.40
2019-02-23T17:02:56.079Z,11.30
2019-02-23T17:05:24.508Z,11.30
2019-02-23T17:07:52.867Z,11.20
2019-02-23T17:10:21.275Z,11.10
2019-02-23T17:12:49.703Z,11.00
2019-02-23T17:15:18.226Z,11.00
2019-02-23T17:17:46.816Z,11.00
2019-02-23T17:20:15.219Z,11.00
2019-02-23T17:22:43.600Z,11.20
2019-02-23T17:25:12.131Z,10.90
2019-02-23T17:27:40.502Z,10.80
2019-02-23T17:30:12.105Z,10.80
2019-02-23T17:32:41.490Z,10.70
2019-02-23T17:35:09.951Z,10.70
2019-02-23T17:37:38.354Z,10.70
2019-02-23T17:40:08.080Z,10.70
2019-02-23T17:42:36.483Z,10.60
2019-02-23T17:45:07.928Z,10.60
2019-02-23T17:47:36.959Z,10.60
2019-02-23T17:50:07.103Z,10.50
2019-02-23T17:52:38.201Z,10.50
2019-02-23T17:55:08.043Z,10.50
2019-02-23T17:57:37.454Z,10.40
2019-02-23T18:00:09.322Z,10.40
2019-02-23T18:02:37.726Z,10.30
2019-02-23T18:05:06.374Z,10.30
2019-02-23T18:07:34.792Z,10.20
2019-02-23T18:10:03.255Z,10.20
2019-02-23T18:12:31.670Z,10.10
2019-02-23T18:15:00.139Z,10.10
2019-02-23T18:17:28.654Z,10.10
2019-02-23T18:19:57.039Z,10.00
2019-02-23T18:22:25.461Z,10.00
2019-02-23T18:24:53.887Z,10.00
2019-02-23T18:27:22.282Z,10.00
2019-02-23T18:29:50.705Z,9.90
2019-02-23T18:32:19.914Z,9.90
2019-02-23T18:34:48.382Z,9.90
2019-02-23T18:37:16.759Z,9.80
2019-02-23T18:39:45.171Z,9.80
2019-02-23T18:42:13.550Z,9.80
2019-02-23T18:44:41.970Z,9.80
2019-02-23T18:47:10.363Z,9.70
2019-02-23T18:49:38.765Z,9.70
2019-02-23T18:52:07.133Z,9.70
2019-02-23T18:54:35.538Z,9.70
2019-02-23T18:57:03.944Z,9.60
2019-02-23T18:59:32.325Z,9.60
2019-02-23T19:02:00.704Z,9.60
2019-02-23T19:04:29.115Z,9.50
2019-02-23T19:06:57.515Z,9.50
2019-02-23T19:09:25.915Z,9.50
2019-02-23T19:11:54.322Z,9.40
2019-02-23T19:14:22.721Z,9.40
2019-02-23T19:16:51.098Z,9.40
2019-02-23T19:19:19.507Z,9.40
2019-02-23T19:21:47.886Z,9.30
2019-02-23T19:24:16.306Z,9.30
2019-02-23T19:26:44.705Z,9.30
2019-02-23T19:29:13.121Z,9.20
2019-02-23T19:31:41.500Z,9.20
2019-02-23T19:34:09.935Z,9.20
2019-02-23T19:36:38.336Z,9.20
2019-02-23T19:39:06.721Z,9.20
2019-02-23T19:41:35.150Z,9.20
2019-02-23T19:44:04.474Z,9.10
2019-02-23T19:46:33.695Z,9.10
2019-02-23T19:49:02.103Z,9.00
2019-02-23T19:51:30.482Z,9.00
2019-02-23T19:53:58.882Z,9.00
2019-02-23T19:56:27.264Z,8.90
2019-02-23T19:58:55.667Z,8.90
2019-02-23T20:01:24.068Z,8.90
2019-02-23T20:03:52.472Z,8.90
2019-02-23T20:06:20.890Z,8.90
2019-02-23T20:08:49.261Z,8.90
2019-02-23T20:11:17.658Z,8.90
2019-02-23T20:13:46.051Z,8.80
2019-02-23T20:16:14.418Z,8.80
2019-02-23T20:18:42.848Z,8.80
2019-02-23T20:21:11.250Z,8.70
2019-02-23T20:23:39.627Z,8.70
2019-02-23T20:26:08.029Z,8.70
2019-02-23T20:28:36.430Z,8.70
2019-02-23T20:31:04.820Z,8.60
2019-02-23T20:33:33.224Z,8.60
2019-02-23T20:36:01.627Z,8.60
2019-02-23T20:38:30.006Z,8.50
2019-02-23T20:40:58.405Z,8.50
2019-02-23T20:43:26.785Z,8.50
2019-02-23T20:45:55.207Z,8.40
2019-02-23T20:48:23.678Z,8.40
2019-02-23T20:50:52.107Z,8.40
2019-02-23T20:53:20.511Z,8.40
2019-02-23T20:55:48.894Z,8.30
2019-02-23T20:58:17.295Z,8.30
2019-02-23T21:00:45.705Z,8.20
2019-02-23T21:03:14.107Z,8.20
2019-02-23T21:05:42.501Z,8.30
2019-02-23T21:08:10.904Z,8.20
2019-02-23T21:10:39.294Z,8.20
2019-02-23T21:13:07.686Z,8.20
2019-02-23T21:15:36.078Z,8.20
2019-02-23T21:18:04.478Z,8.10
2019-02-23T21:20:32.889Z,8.10
2019-02-23T21:23:01.278Z,8.10
2019-02-23T21:25:31.285Z,8.10
2019-02-23T21:27:59.890Z,8.10
2019-02-23T21:30:28.292Z,8.10
2019-02-23T21:32:56.658Z,8.10
2019-02-23T21:35:25.087Z,8.00
2019-02-23T21:37:53.458Z,8.00
2019-02-23T21:40:21.872Z,8.00
2019-02-23T21:42:50.240Z,8.00
2019-02-23T21:45:18.628Z,7.90
2019-02-23T21:47:47.041Z,7.90
2019-02-23T21:50:15.416Z,7.90
2019-02-23T21:52:43.827Z,7.90
2019-02-23T21:55:12.236Z,7.90
2019-02-23T21:57:40.644Z,7.80
2019-02-23T22:00:10.103Z,7.80
2019-02-23T22:02:38.454Z,7.80
2019-02-23T22:05:12.399Z,7.70
2019-02-23T22:07:36.988Z,7.80
2019-02-23T22:10:09.044Z,7.80
2019-02-23T22:12:37.423Z,7.70
2019-02-23T22:15:06.869Z,7.70
2019-02-23T22:17:35.263Z,7.70
2019-02-23T22:20:04.734Z,7.60
2019-02-23T22:22:33.123Z,7.60
2019-02-23T22:25:01.513Z,7.60
2019-02-23T22:27:31.543Z,7.60
2019-02-23T22:30:00.241Z,7.60
2019-02-23T22:32:28.808Z,7.60
2019-02-23T22:34:57.212Z,7.60
2019-02-23T22:37:25.605Z,7.60
2019-02-23T22:39:54.014Z,7.50
2019-02-23T22:42:22.394Z,7.50
2019-02-23T22:44:50.798Z,7.50
2019-02-23T22:47:19.179Z,7.40
2019-02-23T22:49:47.587Z,7.40
2019-02-23T22:52:16.007Z,7.30
2019-02-23T22:54:44.419Z,7.30
2019-02-23T22:57:12.805Z,7.30
2019-02-23T22:59:41.194Z,7.30
2019-02-23T23:02:09.688Z,7.30
2019-02-23T23:04:38.070Z,7.20
2019-02-23T23:07:06.473Z,7.20
2019-02-23T23:09:34.889Z,7.20
2019-02-23T23:12:03.298Z,7.10
2019-02-23T23:14:31.673Z,7.20
2019-02-23T23:17:00.099Z,7.20
2019-02-23T23:19:28.493Z,7.10
2019-02-23T23:21:56.890Z,7.10
2019-02-23T23:24:25.291Z,7.10
2019-02-23T23:26:53.693Z,7.10
2019-02-23T23:29:22.104Z,7.10
2019-02-23T23:31:50.511Z,7.00
2019-02-23T23:34:18.884Z,7.00
2019-02-23T23:36:48.175Z,7.00
2019-02-23T23:39:16.565Z,6.90
2019-02-23T23:41:44.971Z,6.90
2019-02-23T23:44:13.350Z,6.90
2019-02-23T23:46:41.835Z,6.90
2019-02-23T23:49:10.263Z,6.90
2019-02-23T23:51:38.649Z,7.00
2019-02-23T23:54:07.047Z,6.90
2019-02-23T23:56:35.427Z,6.90
2019-02-23T23:59:03.846Z,6.90
